Time;durP1;ratioP1;P1;durP2;ratioP2;P2;SDS_P1;SDS_P2;PMS_P1;PMS_P2;Temp;Humidity;BMP_temperature;BMP_pressure;BME280_temperature;BME280_humidity;BME280_pressure;Samples;Min_cycle;Max_cycle;Signal;HPM_P1;HPM_P2
2024/01/10 00:00:17;;;;;;;10.80;5.57;;;2.60;74.50;;;;;;6306368;22;20015;-69
2024/01/10 00:02:43;;;;;;;12.43;6.43;;;2.60;75.00;;;;;;6306689;22;19995;-70
2024/01/10 00:05:09;;;;;;;11.70;6.37;;;2.60;75.00;;;;;;6280062;22;20011;-70
2024/01/10 00:07:36;;;;;;;12.10;6.43;;;2.60;74.20;;;;;;6307213;22;20074;-70
2024/01/10 00:10:03;;;;;;;11.77;6.17;;;2.60;74.40;;;;;;6306420;22;20003;-69
2024/01/10 00:12:33;;;;;;;17.23;6.73;;;2.60;74.50;;;;;;6307188;22;20023;-69
2024/01/10 00:14:59;;;;;;;11.47;6.40;;;2.60;74.80;;;;;;6306814;22;20003;-69
2024/01/10 00:17:24;;;;;;;9.40;5.77;;;2.60;75.00;;;;;;6306813;22;20009;-69
2024/01/10 00:19:51;;;;;;;10.03;6.10;;;2.60;74.80;;;;;;6306437;22;19999;-69
2024/01/10 00:22:16;;;;;;;11.33;5.67;;;2.60;75.20;;;;;;6306658;22;20003;-69
2024/01/10 00:24:42;;;;;;;10.60;6.00;;;2.50;75.90;;;;;;6307155;22;20058;-69
2024/01/10 00:27:08;;;;;;;12.80;5.80;;;2.50;75.90;;;;;;6307152;22;19999;-70
2024/01/10 00:29:33;;;;;;;9.50;5.60;;;2.50;74.60;;;;;;6307099;22;20098;-70
2024/01/10 00:31:59;;;;;;;12.70;5.97;;;2.60;74.00;;;;;;6306502;22;20000;-69
2024/01/10 00:34:25;;;;;;;11.47;6.17;;;2.50;74.40;;;;;;6306697;22;20073;-69
2024/01/10 00:36:51;;;;;;;10.70;6.03;;;2.60;73.60;;;;;;6306818;22;20070;-70
2024/01/10 00:39:17;;;;;;;9.73;5.60;;;2.60;73.10;;;;;;6306812;22;20006;-69
2024/01/10 00:41:42;;;;;;;9.63;5.57;;;2.60;72.70;;;;;;6306733;22;20011;-70
2024/01/10 00:44:08;;;;;;;10.40;5.63;;;2.70;71.80;;;;;;6306804;22;19995;-69
2024/01/10 00:46:34;;;;;;;9.63;5.87;;;2.70;71.50;;;;;;6306637;22;20057;-69
2024/01/10 00:48:59;;;;;;;9.57;5.83;;;2.70;71.90;;;;;;6306456;22;20073;-69
2024/01/10 00:51:25;;;;;;;11.73;6.43;;;2.70;71.50;;;;;;6306292;22;20011;-69
2024/01/10 00:53:51;;;;;;;12.37;5.87;;;2.70;71.10;;;;;;6306786;22;19995;-70
2024/01/10 00:56:17;;;;;;;10.47;6.00;;;2.70;71.00;;;;;;6306781;22;20027;-70
2024/01/10 00:58:42;;;;;;;13.63;6.27;;;2.70;71.10;;;;;;6306288;22;20003;-69
2024/01/10 01:01:08;;;;;;;10.53;6.10;;;2.60;72.00;;;;;;6306711;22;20007;-70
2024/01/10 01:03:34;;;;;;;10.77;5.80;;;2.60;71.70;;;;;;6306788;22;20083;-70
2024/01/10 01:06:00;;;;;;;11.70;6.10;;;2.50;72.00;;;;;;6306294;22;20026;-69
2024/01/10 01:08:25;;;;;;;12.93;6.50;;;2.50;72.50;;;;;;6306858;22;20003;-69
2024/01/10 01:10:51;;;;;;;14.20;6.37;;;2.50;72.90;;;;;;6306605;22;20023;-74
2024/01/10 01:13:17;;;;;;;12.23;6.60;;;2.40;73.00;;;;;;6306712;22;20000;-74
2024/01/10 01:15:43;;;;;;;14.33;6.70;;;2.40;73.80;;;;;;6306725;22;19999;-72
2024/01/10 01:18:09;;;;;;;11.73;6.27;;;2.30;74.20;;;;;;6306846;22;20000;-74
2024/01/10 01:20:35;;;;;;;14.00;7.17;;;2.40;74.80;;;;;;6306979;22;20070;-69
2024/01/10 01:23:01;;;;;;;11.03;6.47;;;2.30;74.70;;;;;;6279900;22;20004;-70
2024/01/10 01:25:27;;;;;;;11.70;7.20;;;2.30;74.90;;;;;;6307763;22;19999;-69
2024/01/10 01:27:53;;;;;;;13.63;6.77;;;2.30;74.60;;;;;;6307292;22;20317;-69
2024/01/10 01:30:21;;;;;;;11.80;6.43;;;2.30;74.70;;;;;;6307409;22;19999;-69
2024/01/10 01:52:10;;;;;;;12.17;5.93;;;2.20;75.30;;;;;;6213972;23;20011;-69
2024/01/10 01:54:36;;;;;;;12.73;7.13;;;2.20;75.30;;;;;;6214074;23;20339;-69
2024/01/10 01:57:03;;;;;;;12.47;7.00;;;2.20;75.30;;;;;;6260694;22;20406;-69
2024/01/10 01:59:29;;;;;;;14.17;7.17;;;2.20;75.30;;;;;;6276883;22;20073;-69
2024/01/10 02:01:56;;;;;;;11.70;6.37;;;2.20;75.30;;;;;;6277569;22;20344;-70
2024/01/10 02:04:24;;;;;;;12.53;7.07;;;2.10;75.10;;;;;;6306345;22;20019;-70
2024/01/10 02:06:50;;;;;;;11.67;6.53;;;2.10;76.30;;;;;;6307618;22;20045;-69
2024/01/10 02:09:15;;;;;;;10.43;6.03;;;2.10;76.20;;;;;;6308073;22;19999;-70
2024/01/10 02:11:42;;;;;;;11.90;6.63;;;2.10;76.00;;;;;;6308008;22;20007;-69
2024/01/10 02:14:08;;;;;;;13.83;6.63;;;2.10;75.80;;;;;;6307844;22;19999;-70
2024/01/10 02:16:34;;;;;;;11.27;6.10;;;2.10;76.90;;;;;;6308414;22;20034;-69
2024/01/10 02:19:01;;;;;;;12.07;5.90;;;2.10;77.00;;;;;;6308163;22;19999;-70
2024/01/10 02:21:26;;;;;;;11.70;6.43;;;2.10;75.30;;;;;;6307779;22;20090;-69
2024/01/10 02:23:52;;;;;;;15.03;6.10;;;2.10;74.70;;;;;;6308098;22;20035;-69
2024/01/10 02:26:18;;;;;;;11.70;5.70;;;2.10;74.50;;;;;;6308424;22;19995;-69
2024/01/10 02:28:44;;;;;;;12.43;5.97;;;2.20;73.90;;;;;;6308317;22;20039;-69
2024/01/10 02:31:09;;;;;;;11.47;5.90;;;2.20;73.60;;;;;;6307947;22;20003;-70
2024/01/10 02:33:36;;;;;;;11.30;6.03;;;2.20;73.80;;;;;;6307775;22;20010;-69
2024/01/10 02:36:01;;;;;;;11.97;6.03;;;2.20;73.60;;;;;;6307584;22;20009;-69
2024/01/10 02:38:28;;;;;;;13.30;6.73;;;2.20;74.40;;;;;;6280549;22;20030;-70
2024/01/10 02:40:56;;;;;;;11.90;6.87;;;2.30;73.70;;;;;;6307678;22;20007;-70
2024/01/10 02:43:21;;;;;;;12.43;6.43;;;2.40;72.70;;;;;;6307363;22;20019;-69
2024/01/10 02:45:47;;;;;;;13.10;7.10;;;2.40;72.20;;;;;;6307613;22;19999;-69
2024/01/10 02:48:13;;;;;;;14.70;7.20;;;2.40;71.50;;;;;;6307658;22;20025;-69
2024/01/10 02:50:39;;;;;;;15.63;7.57;;;2.40;71.20;;;;;;6280196;22;20157;-69
2024/01/10 02:53:05;;;;;;;14.07;7.37;;;2.50;70.60;;;;;;6307502;22;20006;-69
2024/01/10 02:55:30;;;;;;;12.33;6.57;;;2.40;70.80;;;;;;6307326;22;20034;-69
2024/01/10 02:57:56;;;;;;;12.93;6.80;;;2.50;71.00;;;;;;6307501;22;20072;-69
2024/01/10 03:00:22;;;;;;;14.03;6.97;;;2.40;71.00;;;;;;6307779;22;20425;-69
2024/01/10 03:02:48;;;;;;;15.03;7.23;;;2.30;71.30;;;;;;6308230;22;20027;-69
2024/01/10 03:05:14;;;;;;;13.10;6.67;;;2.30;71.40;;;;;;6308502;22;20048;-69
2024/01/10 03:15:00;;;;;;;13.97;7.27;;;2.30;71.40;;;;;;6227291;23;20059;-69
2024/01/10 03:17:40;;;;;;;15.20;7.70;;;2.20;72.50;;;;;;6199464;23;20001;-69
2024/01/10 03:24:27;;;;;;;14.37;7.33;;;2.20;72.40;;;;;;6259637;22;20007;-70
2024/01/10 03:26:53;;;;;;;13.87;7.30;;;2.20;72.00;;;;;;6243246;22;20330;-70
2024/01/10 03:29:19;;;;;;;13.57;8.03;;;2.20;71.20;;;;;;6243769;23;20338;-69
2024/01/10 03:31:45;;;;;;;13.50;8.17;;;2.20;71.60;;;;;;6243336;23;20004;-69
2024/01/10 03:37:52;;;;;;;13.97;8.10;;;2.20;71.30;;;;;;6183375;23;20471;-69
2024/01/10 03:40:18;;;;;;;13.23;7.80;;;2.20;71.50;;;;;;6183089;23;20376;-69
2024/01/10 03:42:44;;;;;;;15.30;8.20;;;2.20;71.50;;;;;;6182978;23;20335;-70
2024/01/10 03:45:11;;;;;;;13.90;7.83;;;2.10;71.10;;;;;;6227107;22;19999;-70
2024/01/10 03:47:37;;;;;;;15.23;7.90;;;2.10;71.40;;;;;;6307283;22;20082;-69
2024/01/10 03:50:03;;;;;;;16.77;8.67;;;2.10;71.10;;;;;;6306988;22;20045;-69
2024/01/10 03:52:28;;;;;;;15.10;8.47;;;2.10;71.50;;;;;;6307320;22;20003;-70
2024/01/10 03:54:54;;;;;;;15.80;8.13;;;2.10;71.20;;;;;;6307043;22;19996;-69
2024/01/10 03:57:20;;;;;;;16.33;8.03;;;2.00;70.80;;;;;;6279687;22;20107;-70
2024/01/10 03:59:46;;;;;;;16.73;8.10;;;2.00;71.70;;;;;;6306873;22;20451;-70
2024/01/10 04:02:12;;;;;;;16.27;7.77;;;2.00;71.80;;;;;;6307326;22;20025;-70
2024/01/10 04:04:38;;;;;;;17.57;8.90;;;2.00;71.40;;;;;;6307324;22;20003;-69
2024/01/10 04:07:04;;;;;;;14.43;7.70;;;2.10;71.30;;;;;;6279703;22;20027;-69
2024/01/10 04:09:30;;;;;;;15.10;8.23;;;2.10;71.50;;;;;;6306950;22;19999;-69
2024/01/10 04:11:56;;;;;;;16.83;8.60;;;2.10;71.30;;;;;;6307157;22;19999;-69
2024/01/10 04:14:21;;;;;;;16.13;8.43;;;2.10;71.00;;;;;;6306956;22;20007;-69
2024/01/10 04:16:48;;;;;;;17.47;9.20;;;2.00;70.80;;;;;;6307453;22;20019;-74
2024/01/10 04:19:14;;;;;;;15.60;7.83;;;2.10;70.80;;;;;;6306634;22;19999;-75
2024/01/10 04:21:40;;;;;;;16.43;7.97;;;2.00;70.60;;;;;;6307035;22;19999;-73
2024/01/10 04:24:06;;;;;;;20.13;7.80;;;2.00;70.90;;;;;;6307250;22;20026;-73
2024/01/10 04:26:32;;;;;;;15.83;8.63;;;2.00;71.60;;;;;;6307222;22;20014;-74
2024/01/10 04:28:57;;;;;;;15.03;8.17;;;2.00;71.00;;;;;;6306530;22;20428;-74
2024/01/10 04:31:23;;;;;;;16.27;8.80;;;1.90;71.30;;;;;;6300283;22;20083;-74
2024/01/10 04:33:49;;;;;;;13.93;8.10;;;1.90;71.40;;;;;;6294355;22;20011;-74
2024/01/10 04:36:15;;;;;;;13.90;8.30;;;1.90;71.40;;;;;;6298258;22;20488;-74
2024/01/10 04:38:41;;;;;;;15.27;7.83;;;1.90;71.20;;;;;;6307195;22;19999;-70
2024/01/10 04:41:06;;;;;;;16.00;8.77;;;1.90;71.30;;;;;;6307280;22;20011;-69
2024/01/10 04:43:32;;;;;;;14.10;8.10;;;1.90;71.20;;;;;;6307298;22;19995;-69
2024/01/10 04:45:58;;;;;;;12.87;7.63;;;1.80;71.20;;;;;;6307600;22;20031;-69
2024/01/10 04:48:24;;;;;;;18.03;8.33;;;1.80;71.20;;;;;;6307402;22;20002;-69
2024/01/10 04:58:17;;;;;;;16.30;8.57;;;1.90;72.20;;;;;;6211770;23;20088;-69
2024/01/10 05:11:41;;;;;;;16.03;7.50;;;2.00;70.90;;;;;;6007486;23;20007;-70
2024/01/10 05:17:31;;;;;;;16.98;7.20;;;2.00;71.20;;;;;;6064761;23;20011;-69
2024/01/10 05:19:57;;;;;;;13.77;7.30;;;2.00;70.40;;;;;;6010321;23;20397;-70
2024/01/10 05:22:23;;;;;;;14.83;7.90;;;2.00;70.60;;;;;;6192790;22;20322;-69
2024/01/10 05:24:49;;;;;;;14.43;8.10;;;2.00;71.00;;;;;;6275688;22;20006;-69
2024/01/10 05:27:14;;;;;;;15.40;8.03;;;2.00;70.90;;;;;;6277236;22;20003;-70
2024/01/10 05:29:40;;;;;;;16.53;7.90;;;2.00;71.00;;;;;;6277621;22;20000;-69
2024/01/10 05:32:06;;;;;;;13.63;7.77;;;2.00;70.40;;;;;;6278269;22;20007;-70
2024/01/10 05:34:32;;;;;;;14.73;7.30;;;2.00;70.70;;;;;;6276120;22;19996;-70
2024/01/10 05:36:57;;;;;;;13.83;7.30;;;2.00;70.50;;;;;;6277457;22;20027;-70
2024/01/10 05:39:23;;;;;;;13.57;7.43;;;2.00;70.60;;;;;;6277065;22;19995;-70
2024/01/10 05:41:50;;;;;;;15.37;7.27;;;2.00;70.40;;;;;;6281046;22;20003;-70
2024/01/10 05:44:16;;;;;;;14.13;7.67;;;2.10;70.00;;;;;;6308406;22;20004;-69
2024/01/10 05:46:44;;;;;;;12.97;7.40;;;2.10;69.30;;;;;;6281206;22;20038;-70
2024/01/10 05:49:10;;;;;;;20.63;7.10;;;2.10;69.00;;;;;;6308125;22;20330;-69
2024/01/10 05:51:37;;;;;;;14.23;7.77;;;2.10;69.30;;;;;;6308206;22;20014;-70
2024/01/10 05:54:04;;;;;;;12.27;7.37;;;2.10;69.40;;;;;;6308274;22;20060;-69
2024/01/10 05:56:30;;;;;;;14.40;7.70;;;2.10;69.00;;;;;;6308172;22;20437;-70
2024/01/10 05:58:55;;;;;;;15.13;8.00;;;2.10;69.40;;;;;;6308560;22;20014;-69
2024/01/10 06:01:21;;;;;;;14.07;7.43;;;2.10;68.80;;;;;;6308109;22;20064;-70
2024/01/10 06:03:47;;;;;;;15.23;8.53;;;2.10;68.70;;;;;;6308279;22;20065;-70
2024/01/10 06:06:13;;;;;;;16.03;8.63;;;2.10;69.20;;;;;;6308331;22;19995;-69
2024/01/10 06:08:38;;;;;;;13.37;7.37;;;2.10;68.70;;;;;;6308380;22;20010;-69
2024/01/10 06:11:08;;;;;;;13.23;7.90;;;2.10;68.90;;;;;;6307958;22;19999;-69
2024/01/10 06:13:35;;;;;;;15.10;8.10;;;2.10;68.40;;;;;;6308142;22;20013;-69
2024/01/10 06:16:02;;;;;;;14.50;7.57;;;2.10;68.10;;;;;;6308189;22;20004;-69
2024/01/10 06:18:28;;;;;;;17.30;8.00;;;2.10;68.40;;;;;;6308255;22;20450;-69
2024/01/10 06:20:54;;;;;;;20.83;8.83;;;2.10;68.30;;;;;;6308024;22;20011;-69
2024/01/10 06:23:19;;;;;;;15.70;8.37;;;2.20;67.90;;;;;;6308614;22;19995;-69
2024/01/10 06:25:45;;;;;;;17.73;9.00;;;2.20;67.60;;;;;;6309094;22;20010;-69
2024/01/10 06:28:11;;;;;;;18.33;8.73;;;2.20;67.50;;;;;;6308896;22;20368;-69
2024/01/10 06:30:37;;;;;;;16.23;8.57;;;2.20;67.30;;;;;;6308875;22;20489;-69
2024/01/10 06:36:36;;;;;;;13.63;7.60;;;2.20;67.30;;;;;;6236683;22;20008;-69
2024/01/10 06:49:27;;;;;;;18.73;7.47;;;2.00;68.20;;;;;;6304644;22;20014;-69
2024/01/10 06:52:47;;;;;;;14.90;8.00;;;2.00;68.80;;;;;;6178943;22;20090;-68
2024/01/10 06:56:10;;;;;;;20.87;8.30;;;2.00;68.90;;;;;;6295772;22;20014;-69
2024/01/10 06:58:36;;;;;;;14.57;7.47;;;2.00;68.80;;;;;;6307291;22;20376;-69
2024/01/10 07:01:05;;;;;;;15.80;8.57;;;2.00;68.70;;;;;;6307206;22;20015;-68
2024/01/10 07:03:32;;;;;;;16.30;7.93;;;2.00;69.30;;;;;;6306969;22;20011;-69
2024/01/10 07:05:58;;;;;;;13.30;7.30;;;2.00;70.00;;;;;;6308332;22;20324;-69
2024/01/10 07:08:26;;;;;;;14.57;7.43;;;2.00;70.10;;;;;;6307495;22;20006;-70
2024/01/10 07:10:52;;;;;;;18.67;7.87;;;2.00;69.30;;;;;;6307843;22;20006;-68
2024/01/10 07:13:18;;;;;;;13.20;6.70;;;2.00;69.70;;;;;;6307795;22;20003;-70
2024/01/10 07:15:43;;;;;;;13.27;7.33;;;2.00;69.30;;;;;;6307779;22;20005;-69
2024/01/10 07:18:09;;;;;;;14.07;7.97;;;2.00;70.00;;;;;;6308151;22;20429;-69
2024/01/10 07:20:35;;;;;;;19.90;7.17;;;2.10;68.90;;;;;;6307449;22;20011;-69
2024/01/10 07:23:00;;;;;;;12.47;6.80;;;2.10;69.30;;;;;;6307846;22;19999;-70
2024/01/10 07:25:26;;;;;;;12.83;7.13;;;2.10;69.50;;;;;;6307657;22;20027;-69
2024/01/10 07:27:52;;;;;;;12.13;6.73;;;2.10;70.10;;;;;;6307620;22;19996;-69
2024/01/10 07:30:18;;;;;;;12.53;6.70;;;2.10;70.50;;;;;;6308274;22;20003;-68
2024/01/10 07:32:45;;;;;;;14.47;7.10;;;2.10;70.40;;;;;;6307745;22;20007;-69
2024/01/10 07:35:13;;;;;;;12.00;6.50;;;2.10;70.10;;;;;;6307956;22;19996;-69
2024/01/10 07:37:43;;;;;;;15.97;6.77;;;2.10;70.20;;;;;;6307689;22;20408;-69
2024/01/10 07:40:10;;;;;;;12.70;7.07;;;2.10;70.50;;;;;;6307637;22;20015;-75
2024/01/10 07:42:36;;;;;;;12.63;6.70;;;2.20;69.90;;;;;;6307700;22;20000;-74
2024/01/10 07:45:04;;;;;;;12.27;6.17;;;2.20;70.00;;;;;;6307432;22;20026;-74
2024/01/10 07:47:39;;;;;;;11.37;6.30;;;2.20;70.20;;;;;;6307631;22;19995;-75
2024/01/10 07:50:10;;;;;;;12.13;6.50;;;2.20;70.20;;;;;;6306880;22;20003;-75
2024/01/10 07:52:36;;;;;;;13.37;6.70;;;2.30;69.80;;;;;;6307462;22;20003;-74
2024/01/10 07:55:06;;;;;;;15.17;7.37;;;2.30;69.70;;;;;;6307490;22;19999;-75
2024/01/10 07:57:36;;;;;;;11.07;6.30;;;2.30;69.70;;;;;;6307308;22;20009;-72
2024/01/10 08:00:08;;;;;;;12.70;6.40;;;2.40;69.60;;;;;;6307637;22;20446;-70
2024/01/10 08:02:33;;;;;;;14.27;6.60;;;2.40;69.40;;;;;;6307143;22;20038;-69
2024/01/10 08:05:05;;;;;;;13.30;6.70;;;2.50;69.60;;;;;;6306338;22;20430;-69
2024/01/10 08:07:32;;;;;;;12.13;6.57;;;2.50;69.30;;;;;;6307213;22;20050;-68
2024/01/10 08:10:00;;;;;;;13.90;7.20;;;2.50;69.00;;;;;;6295861;22;20026;-68
2024/01/10 08:33:14;;;;;;;13.23;5.97;;;2.80;67.70;;;;;;6103332;23;20375;-69
2024/01/10 08:39:51;;;;;;;14.93;6.47;;;2.90;67.80;;;;;;6065495;23;20112;-69
2024/01/10 08:41:52;;;;;;;10.93;5.78;;;2.90;68.30;;;;;;6059877;23;20473;-69
2024/01/10 08:44:19;;;;;;;10.87;6.37;;;3.00;67.10;;;;;;6182602;23;20004;-69
2024/01/10 08:46:44;;;;;;;12.17;5.83;;;3.00;66.90;;;;;;6297813;22;20009;-69
2024/01/10 08:49:10;;;;;;;10.83;5.93;;;3.00;67.50;;;;;;6306763;22;20003;-70
2024/01/10 08:51:36;;;;;;;14.23;5.37;;;3.10;68.20;;;;;;6307148;22;19999;-69
2024/01/10 08:54:02;;;;;;;10.50;6.03;;;3.10;67.90;;;;;;6306743;22;20007;-69
2024/01/10 08:56:29;;;;;;;10.70;5.07;;;3.20;67.30;;;;;;6307168;22;20023;-69
2024/01/10 08:58:55;;;;;;;9.43;5.57;;;3.20;67.60;;;;;;6306639;22;20322;-69
2024/01/10 09:01:22;;;;;;;11.63;5.73;;;3.20;67.70;;;;;;6308967;22;20018;-70
2024/01/10 09:03:48;;;;;;;10.03;5.90;;;3.30;67.50;;;;;;6309011;22;20311;-69
2024/01/10 09:06:14;;;;;;;10.03;6.03;;;3.30;67.10;;;;;;6309086;22;20432;-70
2024/01/10 09:08:40;;;;;;;9.93;5.30;;;3.30;66.90;;;;;;6308699;22;19999;-70
2024/01/10 09:11:06;;;;;;;9.97;5.20;;;3.40;67.00;;;;;;6308994;22;20076;-70
2024/01/10 09:13:32;;;;;;;11.10;6.00;;;3.40;66.70;;;;;;6309175;22;20039;-69
2024/01/10 09:15:57;;;;;;;10.60;6.37;;;3.40;66.40;;;;;;6309172;22;20019;-68
2024/01/10 09:18:23;;;;;;;10.97;6.00;;;3.40;66.10;;;;;;6309043;22;19999;-70
2024/01/10 09:20:49;;;;;;;10.50;6.43;;;3.50;66.30;;;;;;6308840;22;20007;-73
2024/01/10 09:23:15;;;;;;;10.20;5.80;;;3.50;66.00;;;;;;6309073;22;20070;-72
2024/01/10 09:25:41;;;;;;;12.40;6.43;;;3.60;66.40;;;;;;6308893;22;20376;-72
2024/01/10 09:28:07;;;;;;;11.40;5.60;;;3.60;66.40;;;;;;6308920;22;19995;-72
2024/01/10 09:30:33;;;;;;;9.57;5.73;;;3.60;65.70;;;;;;6281579;22;20014;-73
2024/01/10 09:33:00;;;;;;;9.27;5.27;;;3.70;65.70;;;;;;6309229;22;19995;-71
2024/01/10 09:35:26;;;;;;;11.63;6.30;;;3.70;65.90;;;;;;6308891;22;20003;-75
2024/01/10 09:37:53;;;;;;;8.50;5.40;;;3.80;66.20;;;;;;6308640;22;20302;-74
2024/01/10 09:40:21;;;;;;;9.53;5.70;;;3.80;66.40;;;;;;6309120;22;20102;-75
2024/01/10 09:42:51;;;;;;;9.40;5.63;;;3.80;65.50;;;;;;6309394;22;20375;-72
2024/01/10 09:45:19;;;;;;;9.90;5.87;;;3.90;65.10;;;;;;6309891;22;20435;-71
2024/01/10 09:47:49;;;;;;;9.37;5.00;;;3.90;65.00;;;;;;6309942;22;20360;-70
2024/01/10 09:50:16;;;;;;;9.00;5.13;;;3.90;65.60;;;;;;6309379;22;20074;-73
2024/01/10 10:17:17;;;;;;;9.67;5.27;;;4.10;62.20;;;;;;5729568;25;20023;-73
2024/01/10 10:19:47;;;;;;;7.97;4.57;;;4.10;63.70;;;;;;5740209;24;20020;-74
2024/01/10 10:22:14;;;;;;;9.30;5.00;;;4.20;63.30;;;;;;5928334;24;20012;-74
2024/01/10 10:24:41;;;;;;;10.63;5.80;;;4.20;63.30;;;;;;6199236;22;20081;-74
2024/01/10 10:27:12;;;;;;;8.37;4.80;;;4.30;63.40;;;;;;6275671;22;20053;-74
2024/01/10 10:29:39;;;;;;;8.83;4.93;;;4.30;62.70;;;;;;6277444;22;19999;-74
2024/01/10 10:32:06;;;;;;;9.40;5.00;;;4.30;63.10;;;;;;6277303;22;20004;-74
2024/01/10 10:34:32;;;;;;;10.63;5.23;;;4.40;61.40;;;;;;6277508;22;20078;-74
2024/01/10 10:36:58;;;;;;;9.63;5.10;;;4.40;61.90;;;;;;6277568;22;20364;-74
2024/01/10 10:39:25;;;;;;;7.47;4.63;;;4.40;61.80;;;;;;6276982;22;19999;-69
2024/01/10 10:41:54;;;;;;;6.77;4.33;;;4.50;62.10;;;;;;6277205;22;20011;-73
2024/01/10 10:44:24;;;;;;;8.87;4.90;;;4.50;62.20;;;;;;6277265;22;20338;-74
2024/01/10 10:46:56;;;;;;;11.27;4.90;;;4.60;63.00;;;;;;6276814;22;20475;-69
2024/01/10 10:49:32;;;;;;;8.38;4.53;;;4.60;61.90;;;;;;6277088;22;19996;-70
2024/01/10 10:51:59;;;;;;;10.83;5.20;;;4.70;61.10;;;;;;6277274;22;20015;-71
2024/01/10 10:54:31;;;;;;;11.20;4.27;;;4.70;60.90;;;;;;6277057;22;20389;-73
2024/01/10 10:57:00;;;;;;;8.07;4.13;;;4.70;61.70;;;;;;6274507;22;20074;-69
2024/01/10 10:59:27;;;;;;;8.53;4.80;;;4.80;60.60;;;;;;6277019;22;20082;-71
2024/01/10 11:01:55;;;;;;;7.13;4.60;;;4.90;61.70;;;;;;6282195;22;20019;-73
2024/01/10 11:04:22;;;;;;;7.63;4.37;;;5.00;62.30;;;;;;6307488;22;20003;-69
2024/01/10 11:06:47;;;;;;;8.33;4.20;;;5.00;60.40;;;;;;6307409;22;20003;-68
2024/01/10 11:09:17;;;;;;;6.70;4.20;;;5.10;60.30;;;;;;6307553;22;20004;-68
2024/01/10 11:12:04;;;;;;;6.83;4.20;;;5.10;60.30;;;;;;6307786;22;20007;-68
2024/01/10 11:15:09;;;;;;;7.77;4.50;;;5.10;58.60;;;;;;6307678;22;20000;-66
2024/01/10 11:18:26;;;;;;;9.37;4.43;;;5.20;60.20;;;;;;6307478;22;20579;-73
2024/01/10 11:21:04;;;;;;;7.90;4.67;;;5.30;59.70;;;;;;6281041;22;20029;-72
2024/01/10 11:23:46;;;;;;;8.00;4.80;;;5.30;58.20;;;;;;6307973;22;20049;-71
2024/01/10 11:26:14;;;;;;;12.37;4.07;;;5.40;59.20;;;;;;6308127;22;20101;-69
2024/01/10 11:29:08;;;;;;;7.13;4.67;;;5.40;59.70;;;;;;6307548;22;20003;-73
2024/01/10 11:35:00;;;;;;;7.53;4.17;;;5.50;58.40;;;;;;6091823;22;20039;-68
2024/01/10 11:37:40;;;;;;;7.67;4.40;;;5.60;57.90;;;;;;6275164;22;20618;-67
2024/01/10 11:40:10;;;;;;;8.07;4.53;;;5.70;58.90;;;;;;6276639;22;20014;-69
2024/01/10 11:42:45;;;;;;;7.37;4.30;;;5.70;58.20;;;;;;6276432;22;20027;-71
2024/01/10 11:45:34;;;;;;;6.83;4.10;;;;;;;;;;6275890;22;20083;-69
2024/01/10 11:48:01;;;;;;;8.03;4.27;;;;;;;;;;6266616;22;20019;-66
2024/01/10 11:50:31;;;;;;;6.73;4.07;;;5.90;56.90;;;;;;6276627;22;20011;-66
2024/01/10 11:52:57;;;;;;;8.33;4.30;;;5.90;56.80;;;;;;6276453;22;20008;-67
2024/01/10 11:55:54;;;;;;;10.50;4.23;;;5.90;57.50;;;;;;6276281;22;20031;-67
2024/01/10 11:58:23;;;;;;;7.13;3.90;;;6.00;57.30;;;;;;6307228;22;20462;-67
2024/01/10 12:00:49;;;;;;;9.13;4.40;;;6.00;57.80;;;;;;6307401;22;20012;-67
2024/01/10 12:03:16;;;;;;;7.97;4.50;;;6.10;58.20;;;;;;6305467;22;19995;-67
2024/01/10 12:05:43;;;;;;;7.07;4.17;;;6.10;57.70;;;;;;6303583;22;20048;-66
2024/01/10 12:08:09;;;;;;;8.40;4.33;;;6.10;55.60;;;;;;6303930;22;20021;-67
2024/01/10 12:10:37;;;;;;;6.90;4.27;;;6.10;55.80;;;;;;6305194;22;20074;-67
2024/01/10 12:16:34;;;;;;;6.10;4.10;;;6.10;56.00;;;;;;6305570;22;20010;-67
2024/01/10 12:19:59;;;;;;;7.13;4.17;;;6.10;56.70;;;;;;6306852;22;20045;-66
2024/01/10 12:30:12;;;;;;;6.00;3.50;;;6.20;55.70;;;;;;6133173;23;20012;-69
2024/01/10 12:33:14;;;;;;;6.53;3.90;;;6.10;54.90;;;;;;6190445;23;20023;-68
2024/01/10 12:36:16;;;;;;;6.95;4.32;;;6.20;55.20;;;;;;6211791;23;20059;-68
2024/01/10 12:38:43;;;;;;;11.53;3.97;;;6.20;55.00;;;;;;6212788;23;20009;-67
2024/01/10 12:41:09;;;;;;;7.70;4.27;;;6.20;55.30;;;;;;6294171;22;20011;-68
2024/01/10 12:43:36;;;;;;;6.47;4.17;;;6.10;55.40;;;;;;6307361;22;20005;-68
2024/01/10 12:46:10;;;;;;;9.03;4.27;;;6.20;55.60;;;;;;6306999;22;20006;-67
2024/01/10 12:48:37;;;;;;;5.57;3.57;;;6.20;55.40;;;;;;6307275;22;20007;-68
2024/01/10 12:51:07;;;;;;;8.50;4.63;;;6.20;54.30;;;;;;6306835;22;20010;-68
2024/01/10 12:53:39;;;;;;;7.07;4.10;;;6.20;54.10;;;;;;6280029;22;20381;-67
2024/01/10 12:56:06;;;;;;;20.07;5.03;;;6.10;54.60;;;;;;6279385;22;20322;-68
2024/01/10 12:58:33;;;;;;;7.13;4.10;;;6.20;55.00;;;;;;6306734;22;20310;-69
2024/01/10 13:00:59;;;;;;;6.30;3.90;;;6.20;54.60;;;;;;6306775;22;20038;-68
2024/01/10 13:03:25;;;;;;;6.53;3.63;;;6.10;53.70;;;;;;6306801;22;20022;-68
2024/01/10 13:05:51;;;;;;;8.30;4.23;;;6.10;53.90;;;;;;6306414;22;20436;-68
2024/01/10 13:08:18;;;;;;;7.87;4.10;;;6.10;53.40;;;;;;6307090;22;20015;-68
2024/01/10 13:10:45;;;;;;;6.33;3.50;;;6.10;53.40;;;;;;6306776;22;20429;-68
2024/01/10 13:13:11;;;;;;;8.63;4.60;;;6.10;53.70;;;;;;6306890;22;19999;-67
2024/01/10 13:15:38;;;;;;;8.37;4.50;;;6.10;54.20;;;;;;6306657;22;20379;-68
2024/01/10 13:18:04;;;;;;;10.13;5.07;;;6.10;54.60;;;;;;6306722;22;19999;-68
2024/01/10 13:20:30;;;;;;;9.30;4.47;;;6.10;53.70;;;;;;6306965;22;20034;-67
2024/01/10 13:22:55;;;;;;;10.37;5.27;;;6.10;54.60;;;;;;6307007;22;19995;-69
2024/01/10 13:25:23;;;;;;;11.60;5.10;;;6.10;55.40;;;;;;6306928;22;20056;-67
2024/01/10 13:27:52;;;;;;;8.50;4.43;;;6.00;54.40;;;;;;6306325;22;20002;-67
2024/01/10 13:30:18;;;;;;;8.10;4.20;;;6.10;53.20;;;;;;6306346;22;20007;-67
2024/01/10 13:32:46;;;;;;;8.93;4.33;;;6.10;53.60;;;;;;6306398;22;20003;-66
2024/01/10 13:35:13;;;;;;;11.73;5.17;;;6.10;54.60;;;;;;6306956;22;20011;-66
2024/01/10 13:37:40;;;;;;;14.67;3.97;;;6.00;52.40;;;;;;6306924;22;20003;-68
2024/01/10 13:40:12;;;;;;;9.53;4.43;;;6.00;52.20;;;;;;6307220;22;20049;-66
2024/01/10 13:42:39;;;;;;;8.98;4.50;;;5.90;52.20;;;;;;6307323;22;19999;-66
2024/01/10 13:45:11;;;;;;;6.57;4.43;;;5.90;51.50;;;;;;6307256;22;20030;-67
2024/01/10 13:47:38;;;;;;;8.00;4.50;;;5.90;52.30;;;;;;6307868;22;20029;-66
2024/01/10 13:51:36;;;;;;;9.13;4.80;;;5.80;52.10;;;;;;6308831;22;20379;-67
2024/01/10 14:13:49;;;;;;;8.00;4.53;;;5.60;51.30;;;;;;6186496;23;20068;-67
2024/01/10 14:16:15;;;;;;;8.53;4.20;;;5.60;51.60;;;;;;6236559;23;20404;-67
2024/01/10 14:18:41;;;;;;;8.87;4.03;;;5.60;52.20;;;;;;6306237;22;20031;-67
2024/01/10 14:21:07;;;;;;;7.70;4.33;;;5.60;50.80;;;;;;6308052;22;20067;-66
2024/01/10 14:23:33;;;;;;;9.57;4.10;;;5.60;51.80;;;;;;6308116;22;19999;-68
2024/01/10 14:26:00;;;;;;;6.77;4.07;;;5.60;51.60;;;;;;6308156;22;20417;-67
2024/01/10 14:28:26;;;;;;;7.30;4.17;;;5.60;52.40;;;;;;6307835;22;20430;-67
2024/01/10 14:30:52;;;;;;;7.13;4.40;;;5.60;53.20;;;;;;6303649;22;20014;-68
2024/01/10 14:33:18;;;;;;;7.83;4.33;;;5.60;53.80;;;;;;6304557;22;20031;-68
2024/01/10 14:35:44;;;;;;;13.03;4.67;;;5.60;52.10;;;;;;6305746;22;20445;-68
2024/01/10 14:38:10;;;;;;;8.17;4.57;;;5.60;51.30;;;;;;6307689;22;20006;-67
2024/01/10 14:40:36;;;;;;;8.07;4.27;;;5.60;50.50;;;;;;6308238;22;20011;-67
2024/01/10 14:43:02;;;;;;;7.63;4.40;;;5.50;51.20;;;;;;6307811;22;20006;-68
2024/01/10 14:45:28;;;;;;;15.50;4.17;;;5.50;51.70;;;;;;6307469;22;20030;-67
2024/01/10 14:47:54;;;;;;;8.13;4.20;;;5.50;51.80;;;;;;6307618;22;20456;-69
2024/01/10 14:50:19;;;;;;;6.47;3.67;;;5.50;52.00;;;;;;6307275;22;19995;-67
2024/01/10 14:52:45;;;;;;;8.23;4.20;;;5.40;50.60;;;;;;6307196;22;20000;-68
2024/01/10 14:55:11;;;;;;;7.87;4.27;;;5.40;51.00;;;;;;6308012;22;20010;-71
2024/01/10 14:57:37;;;;;;;6.57;3.97;;;5.40;51.50;;;;;;6308047;22;20026;-70
2024/01/10 15:00:05;;;;;;;9.17;4.33;;;5.30;51.70;;;;;;6307958;22;20014;-72
2024/01/10 15:02:31;;;;;;;8.03;4.50;;;5.30;52.60;;;;;;6307839;22;20030;-72
2024/01/10 15:04:57;;;;;;;8.00;4.47;;;5.30;52.60;;;;;;6306179;22;20030;-71
2024/01/10 15:07:22;;;;;;;7.90;4.77;;;5.30;52.20;;;;;;6304687;22;20007;-72
2024/01/10 15:09:48;;;;;;;8.67;4.30;;;5.30;50.90;;;;;;6302865;22;20014;-66
2024/01/10 15:12:14;;;;;;;9.33;4.17;;;5.30;50.90;;;;;;6307292;22;20002;-66
2024/01/10 15:14:40;;;;;;;11.73;4.50;;;5.30;49.90;;;;;;6308239;22;20008;-66
2024/01/10 15:17:08;;;;;;;7.13;4.10;;;5.30;50.10;;;;;;6308575;22;19999;-67
2024/01/10 15:19:35;;;;;;;8.10;4.20;;;5.20;49.80;;;;;;6307856;22;19999;-67
2024/01/10 15:22:01;;;;;;;7.10;4.40;;;5.20;49.20;;;;;;6307706;22;20007;-67
2024/01/10 15:24:30;;;;;;;13.20;4.20;;;5.10;50.00;;;;;;6307267;22;20044;-70
2024/01/10 15:27:37;;;;;;;12.17;4.27;;;5.10;50.70;;;;;;6307475;22;20006;-68
2024/01/10 15:30:15;;;;;;;8.23;4.00;;;5.10;50.70;;;;;;6212180;23;20378;-67